Time;durP1;ratioP1;P1;durP2;ratioP2;P2;SDS_P1;SDS_P2;PMS_P1;PMS_P2;Temp;Humidity;BMP_temperature;BMP_pressure;BME280_temperature;BME280_humidity;BME280_pressure;Samples;Min_cycle;Max_cycle;Signal;HPM_P1;HPM_P2
2023/02/15 00:01:45;;;;;;;13.95;8.05;;;20.50;99.90;;;;;;5022816;28;20061;-53
2023/02/15 00:04:16;;;;;;;12.57;7.30;;;20.50;99.90;;;;;;5014528;28;20387;-53
2023/02/15 00:06:42;;;;;;;11.57;8.38;;;20.50;99.90;;;;;;5021460;28;20033;-54
2023/02/15 00:09:09;;;;;;;14.63;7.60;;;20.50;99.90;;;;;;5023856;28;20411;-54
2023/02/15 00:11:49;;;;;;;11.40;7.22;;;20.50;99.90;;;;;;5014169;28;20025;-54
2023/02/15 00:14:23;;;;;;;12.65;7.72;;;20.50;99.90;;;;;;5020107;28;20538;-54
2023/02/15 00:16:51;;;;;;;12.48;8.13;;;20.40;99.90;;;;;;5018078;28;20037;-54
2023/02/15 00:19:19;;;;;;;13.20;7.55;;;20.40;99.90;;;;;;5026311;28;20464;-54
2023/02/15 00:21:45;;;;;;;12.45;7.35;;;20.40;99.90;;;;;;5025993;28;20476;-53
2023/02/15 00:24:13;;;;;;;10.82;7.10;;;20.50;99.90;;;;;;5029429;28;20017;-54
2023/02/15 00:26:40;;;;;;;12.32;7.63;;;20.40;99.90;;;;;;5010129;28;20029;-54
2023/02/15 00:29:07;;;;;;;18.90;7.25;;;20.40;99.90;;;;;;4998655;28;20030;-55
2023/02/15 00:31:33;;;;;;;13.75;7.75;;;20.40;99.90;;;;;;5027739;28;20471;-55
2023/02/15 00:34:07;;;;;;;11.48;7.72;;;20.40;99.90;;;;;;5021130;28;20419;-56
2023/02/15 00:36:33;;;;;;;12.50;7.97;;;20.40;99.90;;;;;;5015567;28;20125;-56
2023/02/15 00:38:59;;;;;;;15.45;8.45;;;20.40;99.90;;;;;;5014402;28;20110;-55
2023/02/15 00:41:25;;;;;;;12.48;7.70;;;20.40;99.90;;;;;;5011974;28;20127;-55
2023/02/15 00:43:50;;;;;;;11.90;7.25;;;20.40;99.90;;;;;;5020403;28;20499;-56
2023/02/15 00:46:16;;;;;;;10.43;7.10;;;20.40;99.90;;;;;;5008302;28;20116;-55
2023/02/15 00:48:42;;;;;;;12.43;7.50;;;20.40;99.90;;;;;;5013775;28;20412;-55
2023/02/15 00:51:08;;;;;;;13.43;7.95;;;20.40;99.90;;;;;;5014082;28;20048;-54
2023/02/15 00:53:34;;;;;;;12.10;6.85;;;20.40;99.90;;;;;;5013885;28;20022;-55
2023/02/15 00:56:00;;;;;;;10.43;7.78;;;20.40;99.90;;;;;;5013957;28;20187;-57
2023/02/15 00:58:26;;;;;;;13.23;7.63;;;20.30;99.90;;;;;;5012170;28;20060;-56
2023/02/15 01:00:52;;;;;;;12.60;7.22;;;20.30;99.90;;;;;;5029960;28;20054;-56
2023/02/15 01:03:20;;;;;;;10.80;6.68;;;20.40;99.90;;;;;;5027703;28;20510;-56
2023/02/15 01:05:46;;;;;;;;;;;20.30;99.90;;;;;;5012867;28;20026;-55
2023/02/15 01:08:12;;;;;;;11.47;7.60;;;20.30;99.90;;;;;;5022140;28;19909;-55
2023/02/15 01:10:38;;;;;;;14.90;7.88;;;20.30;99.90;;;;;;5029745;28;20618;-55
2023/02/15 01:13:04;;;;;;;11.93;7.30;;;20.30;99.90;;;;;;5021138;28;20026;-54
2023/02/15 01:15:30;;;;;;;12.35;7.55;;;20.30;99.90;;;;;;5015949;28;20041;-56
2023/02/15 01:17:56;;;;;;;10.40;6.55;;;20.30;99.90;;;;;;5021406;28;20148;-56
2023/02/15 01:20:27;;;;;;;11.73;7.60;;;20.30;99.90;;;;;;5028023;28;20453;-55
2023/02/15 01:22:54;;;;;;;11.00;7.70;;;20.30;99.90;;;;;;5027033;28;20421;-55
2023/02/15 01:25:22;;;;;;;10.73;7.38;;;20.30;99.90;;;;;;5027310;28;20379;-54
2023/02/15 01:27:48;;;;;;;11.45;7.40;;;20.30;99.90;;;;;;5012910;28;20026;-54
2023/02/15 01:30:15;;;;;;;11.13;7.30;;;20.20;99.90;;;;;;5013522;28;20159;-55
2023/02/15 01:32:42;;;;;;;10.23;7.70;;;20.20;99.90;;;;;;5030759;28;20068;-56
2023/02/15 01:35:08;;;;;;;11.15;7.28;;;20.30;99.90;;;;;;5033564;28;20545;-56
2023/02/15 01:37:35;;;;;;;14.75;8.27;;;20.20;99.90;;;;;;5033385;28;20040;-56
2023/02/15 01:40:02;;;;;;;11.07;7.60;;;20.20;99.90;;;;;;5032058;28;20037;-56
2023/02/15 01:42:29;;;;;;;11.70;7.97;;;20.20;99.90;;;;;;5032063;28;20109;-56
2023/02/15 01:44:57;;;;;;;10.40;6.93;;;20.20;99.90;;;;;;5031359;28;20018;-56
2023/02/15 01:47:43;;;;;;;10.38;6.22;;;20.20;99.90;;;;;;5032653;28;20206;-56
2023/02/15 01:50:21;;;;;;;12.45;7.80;;;20.20;99.90;;;;;;5033092;28;20037;-56
2023/02/15 01:53:19;;;;;;;14.23;6.90;;;20.20;99.90;;;;;;5033309;28;20029;-55
2023/02/15 01:55:59;;;;;;;11.93;7.18;;;20.20;99.90;;;;;;5028375;28;20061;-56
2023/02/15 01:58:28;;;;;;;9.00;6.22;;;20.20;99.90;;;;;;5033190;28;20037;-56
2023/02/15 02:00:56;;;;;;;13.43;6.53;;;20.20;99.90;;;;;;5047142;23;20648;-52
2023/02/15 02:03:27;;;;;;;;;;;20.10;99.90;;;;;;5033771;28;20033;-52
2023/02/15 02:05:53;;;;;;;13.40;8.32;;;20.10;99.90;;;;;;5033305;28;19905;-52
2023/02/15 02:08:19;;;;;;;11.18;7.05;;;20.10;99.90;;;;;;5033245;28;20028;-52
2023/02/15 02:10:45;;;;;;;14.10;7.20;;;20.10;99.90;;;;;;5015661;28;20025;-52
2023/02/15 02:13:10;;;;;;;10.05;6.80;;;20.10;99.90;;;;;;5032978;28;20018;-52
2023/02/15 02:15:54;;;;;;;13.13;7.13;;;20.10;99.90;;;;;;5032968;28;20040;-52
2023/02/15 02:18:31;;;;;;;11.40;7.10;;;20.10;99.90;;;;;;5032878;28;20060;-52
2023/02/15 02:21:12;;;;;;;9.82;6.53;;;20.10;99.90;;;;;;5032560;28;20025;-51
2023/02/15 02:23:40;;;;;;;10.93;7.20;;;20.10;99.90;;;;;;5032939;28;20056;-51
2023/02/15 02:26:43;;;;;;;10.85;7.07;;;20.00;99.90;;;;;;5032812;28;20036;-51
2023/02/15 02:29:11;;;;;;;12.65;7.43;;;20.00;99.90;;;;;;5032819;28;20021;-52
2023/02/15 02:31:55;;;;;;;11.43;7.28;;;20.00;99.90;;;;;;5032772;28;20498;-51
2023/02/15 02:34:31;;;;;;;10.20;6.53;;;20.00;99.90;;;;;;5032763;28;20059;-51
2023/02/15 02:37:12;;;;;;;10.02;6.75;;;20.00;99.90;;;;;;5032598;28;20040;-51
2023/02/15 02:40:03;;;;;;;12.27;7.90;;;20.00;99.90;;;;;;5011393;28;20022;-51
2023/02/15 02:42:55;;;;;;;10.80;7.00;;;20.00;99.90;;;;;;5032217;28;20032;-51
2023/02/15 02:45:28;;;;;;;9.20;6.80;;;20.00;99.90;;;;;;5014474;28;20447;-51
2023/02/15 02:48:01;;;;;;;9.98;6.82;;;20.00;99.90;;;;;;5032298;28;20017;-51
2023/02/15 02:50:29;;;;;;;9.68;6.32;;;19.90;99.90;;;;;;5032351;28;20025;-51
2023/02/15 02:52:56;;;;;;;;;;;19.90;99.90;;;;;;5032576;28;20100;-51
2023/02/15 02:55:31;;;;;;;9.43;6.00;;;19.90;99.90;;;;;;5026416;28;19913;-52
2023/02/15 02:58:09;;;;;;;11.43;6.95;;;19.90;99.90;;;;;;5012524;28;20030;-51
2023/02/15 03:00:43;;;;;;;10.35;6.38;;;19.90;99.90;;;;;;5032828;28;20030;-52
2023/02/15 03:03:17;;;;;;;11.60;6.50;;;19.90;99.90;;;;;;5018811;28;20026;-52
2023/02/15 03:05:47;;;;;;;9.88;6.90;;;19.90;99.90;;;;;;5012599;28;20033;-53
2023/02/15 03:08:21;;;;;;;7.35;5.70;;;19.90;99.90;;;;;;5007721;28;20021;-51
2023/02/15 03:10:51;;;;;;;12.27;7.35;;;19.90;99.90;;;;;;5019927;28;20067;-52
2023/02/15 03:13:17;;;;;;;9.60;6.63;;;19.90;99.90;;;;;;5014615;28;20022;-52
2023/02/15 03:16:26;;;;;;;8.48;5.90;;;19.80;99.90;;;;;;5031974;28;20091;-54
2023/02/15 03:18:37;;;;;;;8.90;6.40;;;19.90;99.90;;;;;;5007074;28;20034;-51
2023/02/15 03:21:05;;;;;;;9.35;6.53;;;19.90;99.90;;;;;;5032051;28;20022;-51
2023/02/15 03:23:32;;;;;;;;;;;19.90;99.90;;;;;;5032146;28;20506;-51
2023/02/15 03:26:03;;;;;;;11.05;6.07;;;19.90;99.90;;;;;;5014074;28;19909;-51
2023/02/15 03:28:40;;;;;;;10.20;6.47;;;19.90;99.90;;;;;;5031820;28;20040;-51
2023/02/15 03:31:09;;;;;;;9.60;6.05;;;19.90;99.90;;;;;;5024582;28;20025;-51
2023/02/15 03:33:38;;;;;;;10.30;6.75;;;19.90;99.90;;;;;;5013836;28;20022;-55
2023/02/15 03:36:36;;;;;;;8.18;5.93;;;19.80;99.90;;;;;;5016573;28;20040;-51
2023/02/15 03:39:07;;;;;;;;;;;19.80;99.90;;;;;;5031733;28;20022;-51
2023/02/15 03:41:42;;;;;;;9.93;6.30;;;19.80;99.90;;;;;;5016198;28;19906;-51
2023/02/15 03:44:22;;;;;;;9.82;6.20;;;19.80;99.90;;;;;;5034513;28;20029;-51
2023/02/15 03:46:52;;;;;;;6.38;5.38;;;19.80;99.90;;;;;;5014754;28;20437;-51
2023/02/15 03:49:34;;;;;;;10.27;6.80;;;19.80;99.90;;;;;;5035214;28;20053;-51
2023/02/15 03:52:01;;;;;;;9.20;5.78;;;19.80;99.90;;;;;;5015818;28;20021;-49
2023/02/15 03:54:42;;;;;;;8.07;5.85;;;19.80;99.90;;;;;;4998521;28;20472;-49
2023/02/15 04:03:08;;;;;;;9.55;6.25;;;19.80;99.90;;;;;;5036073;28;20044;-51
2023/02/15 04:05:35;;;;;;;8.77;5.70;;;19.70;99.90;;;;;;5035278;28;20025;-51
2023/02/15 04:08:01;;;;;;;8.75;6.25;;;19.70;99.90;;;;;;5035164;28;20550;-51
2023/02/15 04:13:11;;;;;;;8.23;5.82;;;19.70;99.90;;;;;;5015761;28;20033;-51
2023/02/15 04:18:21;;;;;;;8.52;5.25;;;19.70;99.90;;;;;;5021883;28;20020;-51
2023/02/15 04:26:16;;;;;;;7.88;5.95;;;19.70;99.90;;;;;;5015682;28;20110;-51
2023/02/15 04:28:42;;;;;;;8.52;5.35;;;19.70;99.90;;;;;;5015573;28;20026;-51
2023/02/15 04:31:07;;;;;;;9.35;5.40;;;19.70;99.90;;;;;;5027731;28;20446;-51
2023/02/15 04:33:35;;;;;;;9.98;6.55;;;19.70;99.90;;;;;;5034684;28;20018;-51
2023/02/15 04:36:02;;;;;;;8.25;5.40;;;19.70;99.90;;;;;;5023828;28;20034;-51
2023/02/15 04:38:28;;;;;;;8.55;5.65;;;19.80;99.90;;;;;;5032487;28;20096;-51
2023/02/15 04:40:53;;;;;;;10.80;5.97;;;19.70;99.90;;;;;;5034752;28;20049;-51
2023/02/15 04:43:19;;;;;;;11.10;5.68;;;19.70;99.90;;;;;;5031710;28;20383;-51
2023/02/15 04:45:51;;;;;;;11.63;6.50;;;19.70;99.90;;;;;;5014408;28;20045;-51
2023/02/15 04:48:17;;;;;;;7.30;5.45;;;19.70;99.90;;;;;;5016757;28;20029;-49
2023/02/15 04:50:44;;;;;;;6.80;5.50;;;19.70;99.90;;;;;;5034469;28;20507;-49
2023/02/15 04:53:10;;;;;;;9.25;5.82;;;19.70;99.90;;;;;;5032570;28;20178;-49
2023/02/15 04:55:36;;;;;;;9.82;5.90;;;19.70;99.90;;;;;;5021976;28;20032;-51
2023/02/15 04:58:02;;;;;;;8.63;6.13;;;19.70;99.90;;;;;;5020182;28;20515;-49
2023/02/15 05:00:28;;;;;;;8.02;6.07;;;19.70;99.90;;;;;;5039723;23;20053;-59
2023/02/15 05:02:54;;;;;;;7.78;5.55;;;19.70;99.90;;;;;;5016548;28;20491;-59
2023/02/15 05:05:19;;;;;;;8.60;6.03;;;19.70;99.90;;;;;;5034092;28;20109;-59
2023/02/15 05:07:45;;;;;;;10.63;6.10;;;19.70;99.90;;;;;;5034108;28;20031;-59
2023/02/15 05:10:11;;;;;;;10.50;5.75;;;19.70;99.90;;;;;;5034258;28;20390;-59
2023/02/15 05:12:37;;;;;;;9.23;5.57;;;19.70;99.90;;;;;;5033940;28;20030;-59
2023/02/15 05:15:03;;;;;;;9.27;5.57;;;19.70;99.90;;;;;;5033803;28;20021;-59
2023/02/15 05:17:28;;;;;;;9.05;5.88;;;19.70;99.90;;;;;;5024678;28;20032;-59
2023/02/15 05:19:54;;;;;;;7.53;5.18;;;19.70;99.90;;;;;;5030118;28;20055;-59
2023/02/15 05:22:20;;;;;;;10.25;6.60;;;19.70;99.90;;;;;;5034058;28;20029;-59
2023/02/15 05:30:14;;;;;;;10.85;5.75;;;19.70;99.90;;;;;;5027516;28;20029;-60
2023/02/15 05:32:40;;;;;;;8.30;5.45;;;19.70;99.90;;;;;;5024973;28;20021;-58
2023/02/15 05:35:07;;;;;;;6.72;5.05;;;19.70;99.90;;;;;;5033425;28;20491;-60
2023/02/15 05:37:33;;;;;;;9.50;5.53;;;19.70;99.90;;;;;;5033498;28;20022;-60
2023/02/15 05:39:59;;;;;;;10.10;6.07;;;19.70;99.90;;;;;;5030002;28;20025;-60
2023/02/15 05:42:25;;;;;;;8.10;5.50;;;19.70;99.90;;;;;;5021908;28;20082;-61
2023/02/15 05:44:50;;;;;;;7.55;5.85;;;19.70;99.90;;;;;;5033501;28;20430;-61
2023/02/15 05:47:16;;;;;;;8.88;5.78;;;19.70;99.90;;;;;;5033461;28;20032;-60
2023/02/15 05:49:42;;;;;;;8.20;5.47;;;19.60;99.90;;;;;;5033393;28;20024;-60
2023/02/15 05:52:08;;;;;;;7.80;5.70;;;19.70;99.90;;;;;;5013628;28;20384;-59
2023/02/15 05:54:33;;;;;;;8.55;5.25;;;19.70;99.90;;;;;;5026587;28;20494;-61
2023/02/15 05:56:59;;;;;;;8.57;5.32;;;19.70;99.90;;;;;;5032287;28;20479;-61
2023/02/15 05:59:25;;;;;;;7.90;5.43;;;19.70;99.90;;;;;;5015219;28;20061;-60
2023/02/15 06:01:51;;;;;;;7.38;5.25;;;19.70;99.90;;;;;;5029631;28;20105;-59
2023/02/15 06:04:16;;;;;;;7.82;5.22;;;19.70;99.90;;;;;;5013304;28;20026;-60
2023/02/15 06:06:42;;;;;;;8.75;5.93;;;19.70;99.90;;;;;;5029751;28;20028;-62
2023/02/15 06:09:09;;;;;;;8.55;5.25;;;19.70;99.90;;;;;;5024593;28;20040;-60
2023/02/15 06:11:35;;;;;;;8.07;5.57;;;19.70;99.90;;;;;;5026442;28;20471;-60
2023/02/15 06:14:01;;;;;;;7.75;4.97;;;19.70;99.90;;;;;;5021731;28;20034;-60
2023/02/15 06:16:26;;;;;;;7.93;4.95;;;19.70;99.90;;;;;;5019264;28;20034;-60
2023/02/15 06:18:52;;;;;;;10.18;6.07;;;19.70;99.90;;;;;;5019871;28;20021;-60
2023/02/15 06:21:18;;;;;;;11.73;5.43;;;19.70;99.90;;;;;;5032819;28;20507;-63
2023/02/15 06:23:44;;;;;;;7.75;5.22;;;19.60;99.90;;;;;;5027520;28;20022;-61
2023/02/15 06:26:09;;;;;;;8.35;4.95;;;19.60;99.90;;;;;;5024739;28;20075;-62
2023/02/15 06:28:37;;;;;;;7.90;5.22;;;19.60;99.90;;;;;;5014655;28;20022;-59
2023/02/15 06:31:03;;;;;;;7.78;4.60;;;19.60;99.90;;;;;;5032456;28;20104;-60
2023/02/15 06:33:30;;;;;;;7.20;4.95;;;19.60;99.90;;;;;;5010691;28;20022;-60
2023/02/15 06:35:56;;;;;;;7.30;4.80;;;19.60;99.90;;;;;;5021812;28;20064;-60
2023/02/15 06:38:22;;;;;;;6.63;4.82;;;19.60;99.90;;;;;;5019289;28;20376;-59
2023/02/15 06:40:48;;;;;;;7.85;4.95;;;19.60;99.90;;;;;;5032671;28;20030;-60
2023/02/15 06:43:13;;;;;;;9.25;5.00;;;19.60;99.90;;;;;;5032485;28;20025;-61
2023/02/15 06:45:40;;;;;;;7.13;5.00;;;19.60;99.90;;;;;;5024350;28;20025;-61
2023/02/15 06:48:07;;;;;;;9.98;4.90;;;19.60;99.90;;;;;;5012705;28;20602;-61
2023/02/15 06:50:34;;;;;;;8.05;4.90;;;19.60;99.90;;;;;;5031779;28;20144;-60
2023/02/15 06:53:00;;;;;;;8.77;5.70;;;19.60;99.90;;;;;;5018920;28;20017;-60
2023/02/15 06:55:26;;;;;;;8.57;5.03;;;19.60;99.90;;;;;;4999930;28;20030;-60
2023/02/15 06:57:52;;;;;;;7.53;3.92;;;19.60;99.90;;;;;;5020329;28;20026;-60
2023/02/15 07:00:18;;;;;;;6.80;3.97;;;19.60;99.90;;;;;;5017483;28;20200;-60
2023/02/15 07:02:44;;;;;;;10.18;4.50;;;19.60;99.90;;;;;;5022044;28;20026;-61
2023/02/15 07:05:10;;;;;;;8.25;4.63;;;19.60;99.90;;;;;;5012301;28;20069;-60
2023/02/15 07:07:36;;;;;;;7.30;4.40;;;19.60;99.90;;;;;;5004652;28;20033;-61
2023/02/15 07:10:02;;;;;;;6.57;4.57;;;19.60;99.90;;;;;;5001140;28;20458;-61
2023/02/15 07:12:44;;;;;;;7.32;5.18;;;19.50;99.90;;;;;;5031937;28;20021;-61
2023/02/15 07:15:15;;;;;;;9.13;4.40;;;19.50;99.90;;;;;;5031743;28;20024;-61
2023/02/15 07:17:41;;;;;;;7.72;4.28;;;19.50;99.90;;;;;;5031895;28;20029;-61
2023/02/15 07:20:22;;;;;;;6.45;4.65;;;19.60;99.90;;;;;;5014162;28;20013;-60
2023/02/15 07:22:48;;;;;;;8.57;4.82;;;19.50;99.90;;;;;;5032050;28;20021;-61
2023/02/15 07:25:15;;;;;;;9.60;5.32;;;19.50;99.90;;;;;;5031719;28;20014;-61
2023/02/15 07:27:41;;;;;;;7.43;5.50;;;19.50;99.90;;;;;;5031923;28;20014;-61
2023/02/15 07:30:10;;;;;;;6.43;4.25;;;19.50;99.90;;;;;;5029308;28;20037;-61
2023/02/15 07:32:36;;;;;;;8.45;5.15;;;19.50;99.90;;;;;;5021460;28;20013;-62
2023/02/15 07:35:02;;;;;;;6.53;4.25;;;19.50;99.90;;;;;;5015619;28;20034;-61
2023/02/15 07:37:28;;;;;;;6.78;4.30;;;19.50;99.90;;;;;;5020158;28;20104;-61
2023/02/15 07:39:53;;;;;;;6.38;4.65;;;19.50;99.90;;;;;;5013653;28;20060;-62
2023/02/15 07:42:20;;;;;;;7.55;4.57;;;19.50;99.90;;;;;;5014231;28;20422;-62
2023/02/15 07:44:46;;;;;;;18.02;5.72;;;19.50;99.90;;;;;;5031499;28;20395;-62
2023/02/15 07:47:12;;;;;;;9.82;4.95;;;19.50;99.90;;;;;;5031566;28;20036;-62
2023/02/15 07:49:38;;;;;;;9.07;5.10;;;19.50;99.90;;;;;;5031542;28;20061;-62
2023/02/15 07:52:04;;;;;;;7.40;4.95;;;19.50;99.90;;;;;;5031521;28;20022;-62
2023/02/15 07:54:30;;;;;;;10.60;5.85;;;19.50;99.90;;;;;;5019760;28;20034;-62
2023/02/15 07:56:56;;;;;;;9.32;5.63;;;19.50;99.90;;;;;;5010742;28;20147;-63
2023/02/15 07:59:21;;;;;;;11.07;6.15;;;19.50;99.90;;;;;;5010585;28;20468;-63
2023/02/15 08:01:47;;;;;;;9.07;6.07;;;19.50;99.90;;;;;;5013624;28;20451;-62
2023/02/15 08:04:13;;;;;;;9.15;5.72;;;19.50;99.90;;;;;;5022592;28;20026;-62
2023/02/15 08:06:39;;;;;;;12.57;5.80;;;19.50;99.90;;;;;;5027190;28;20043;-62
2023/02/15 08:09:09;;;;;;;10.20;6.35;;;19.50;99.90;;;;;;5024251;28;20026;-62
2023/02/15 08:11:36;;;;;;;10.65;6.93;;;19.50;99.90;;;;;;5025687;28;20335;-64
2023/02/15 08:14:32;;;;;;;10.25;5.95;;;19.50;99.90;;;;;;5031423;28;20025;-63
2023/02/15 08:17:02;;;;;;;10.68;6.05;;;19.50;99.90;;;;;;5015106;28;20081;-62
2023/02/15 08:19:32;;;;;;;9.27;6.60;;;19.50;99.90;;;;;;5023609;28;20053;-62
2023/02/15 08:22:00;;;;;;;9.25;6.00;;;19.50;99.90;;;;;;5031661;28;20024;-62
2023/02/15 08:24:32;;;;;;;9.43;6.03;;;19.50;99.90;;;;;;5007541;28;20041;-64
2023/02/15 08:26:58;;;;;;;9.68;5.95;;;19.50;99.90;;;;;;5034974;28;20028;-63
2023/02/15 08:29:27;;;;;;;9.57;6.45;;;19.50;99.90;;;;;;5035086;28;20014;-61
2023/02/15 08:31:58;;;;;;;10.30;6.05;;;19.50;99.90;;;;;;5034845;28;20016;-62
2023/02/15 08:34:24;;;;;;;11.40;6.65;;;19.50;99.90;;;;;;5035056;28;20025;-61
2023/02/15 08:36:50;;;;;;;13.82;7.13;;;19.60;99.90;;;;;;5034574;28;20091;-61
2023/02/15 08:39:17;;;;;;;12.05;6.97;;;19.60;99.90;;;;;;5034543;28;20379;-61
2023/02/15 08:41:45;;;;;;;10.63;7.22;;;19.60;99.90;;;;;;5032320;28;20029;-65
2023/02/15 08:44:12;;;;;;;8.90;6.03;;;19.60;99.90;;;;;;5015045;28;20029;-64
2023/02/15 08:46:41;;;;;;;10.85;6.15;;;19.60;99.90;;;;;;5014683;28;20030;-62
2023/02/15 08:49:07;;;;;;;11.77;6.65;;;19.60;99.90;;;;;;5022636;28;20471;-61
2023/02/15 08:51:35;;;;;;;9.98;6.97;;;19.60;99.90;;;;;;5033541;28;20413;-61
2023/02/15 08:54:06;;;;;;;9.57;6.75;;;19.70;99.90;;;;;;5004645;28;20017;-62
2023/02/15 08:56:36;;;;;;;10.55;6.93;;;19.60;99.90;;;;;;5016323;28;20203;-63
2023/02/15 08:59:02;;;;;;;9.63;6.45;;;19.70;99.90;;;;;;5034237;28;20025;-61
2023/02/15 09:01:30;;;;;;;12.88;6.82;;;19.70;99.90;;;;;;5033769;28;20408;-63
2023/02/15 09:03:59;;;;;;;10.30;6.85;;;19.70;99.90;;;;;;5033897;28;20022;-62
2023/02/15 09:06:26;;;;;;;9.02;6.40;;;19.70;99.90;;;;;;5034243;28;20053;-61
2023/02/15 09:08:52;;;;;;;9.27;6.43;;;19.70;99.90;;;;;;5034348;28;20439;-63
2023/02/15 09:11:23;;;;;;;9.63;6.35;;;19.70;99.90;;;;;;5021212;28;20743;-61
2023/02/15 09:14:04;;;;;;;10.75;6.75;;;19.70;99.90;;;;;;5021055;28;20021;-62
2023/02/15 09:16:33;;;;;;;10.98;6.30;;;19.70;99.90;;;;;;5015382;28;20043;-62
2023/02/15 09:19:01;;;;;;;9.40;6.15;;;19.70;99.90;;;;;;5014141;28;20021;-62
2023/02/15 09:21:28;;;;;;;8.85;6.47;;;19.70;99.90;;;;;;5014314;28;20049;-62
2023/02/15 09:23:59;;;;;;;9.73;6.55;;;19.70;99.90;;;;;;5020883;28;20050;-63
2023/02/15 09:26:26;;;;;;;10.57;6.50;;;19.70;99.90;;;;;;5033011;28;20029;-62
2023/02/15 09:28:58;;;;;;;9.57;6.85;;;19.70;99.90;;;;;;5020176;28;20045;-63
2023/02/15 09:31:29;;;;;;;13.52;6.25;;;19.70;99.90;;;;;;5019179;28;20431;-62
2023/02/15 09:33:56;;;;;;;10.07;6.47;;;19.70;99.90;;;;;;5014150;28;20076;-63
2023/02/15 09:36:21;;;;;;;10.10;6.35;;;19.70;99.90;;;;;;5026457;28;20040;-62
2023/02/15 09:38:58;;;;;;;10.48;6.78;;;19.70;99.90;;;;;;5033674;28;20021;-64
2023/02/15 09:41:52;;;;;;;11.82;7.35;;;19.70;99.90;;;;;;5033756;28;20048;-61
2023/02/15 09:44:51;;;;;;;12.43;6.47;;;19.70;99.90;;;;;;5013180;28;20493;-62
2023/02/15 09:47:17;;;;;;;8.70;5.85;;;19.70;99.90;;;;;;5032925;28;20021;-62
2023/02/15 09:50:02;;;;;;;13.00;7.13;;;19.70;99.90;;;;;;5024225;28;20034;-63
2023/02/15 09:52:57;;;;;;;8.50;6.38;;;19.70;99.90;;;;;;5017693;28;20375;-63
2023/02/15 09:55:38;;;;;;;12.10;8.35;;;19.70;99.90;;;;;;5024847;28;20399;-63
2023/02/15 09:58:38;;;;;;;10.45;7.05;;;19.70;99.90;;;;;;5032931;28;20053;-63
2023/02/15 10:01:28;;;;;;;10.77;6.40;;;19.70;99.90;;;;;;5006016;28;20073;-63
2023/02/15 10:04:08;;;;;;;10.02;6.55;;;19.70;99.90;;;;;;4999642;28;20388;-64
2023/02/15 10:07:12;;;;;;;11.73;6.13;;;19.70;99.90;;;;;;5001922;28;20096;-62
2023/02/15 10:09:56;;;;;;;12.10;6.60;;;19.70;99.90;;;;;;5013331;28;20022;-67
2023/02/15 10:12:49;;;;;;;12.40;6.00;;;19.70;99.90;;;;;;5015523;28;20036;-67
2023/02/15 10:15:35;;;;;;;16.85;6.20;;;19.70;99.90;;;;;;4995595;28;20125;-66
2023/02/15 10:18:26;;;;;;;11.90;6.50;;;19.70;99.90;;;;;;5024314;28;20045;-65
2023/02/15 10:21:09;;;;;;;17.15;5.90;;;19.70;99.90;;;;;;5016918;28;20018;-65
2023/02/15 10:23:41;;;;;;;10.07;6.03;;;19.80;99.90;;;;;;5018729;28;20021;-66
2023/02/15 10:26:20;;;;;;;18.95;7.38;;;19.70;99.90;;;;;;5020227;28;20030;-66
2023/02/15 10:29:02;;;;;;;11.52;6.60;;;19.80;99.90;;;;;;5017687;28;20487;-68
2023/02/15 10:31:48;;;;;;;12.80;6.47;;;19.80;99.90;;;;;;5019326;28;20557;-68
2023/02/15 10:34:21;;;;;;;14.73;6.50;;;19.80;99.90;;;;;;5017895;28;20017;-68
2023/02/15 10:37:00;;;;;;;13.20;6.68;;;19.80;99.90;;;;;;5021287;28;20431;-66
2023/02/15 10:39:44;;;;;;;13.68;6.85;;;19.80;99.90;;;;;;5016749;28;20021;-68
2023/02/15 10:42:18;;;;;;;15.65;6.70;;;19.80;99.90;;;;;;5024317;28;20021;-67
2023/02/15 10:45:11;;;;;;;14.25;6.05;;;19.80;99.90;;;;;;5020581;28;20014;-67
2023/02/15 10:48:02;;;;;;;13.77;6.60;;;19.80;99.90;;;;;;5020087;28;20496;-67
2023/02/15 10:50:45;;;;;;;13.15;5.75;;;19.80;99.90;;;;;;5016376;28;20368;-67
2023/02/15 10:53:46;;;;;;;11.77;5.93;;;19.80;99.90;;;;;;5018073;28;20041;-66
2023/02/15 10:56:22;;;;;;;13.45;6.15;;;19.80;99.90;;;;;;4986169;28;20054;-67
2023/02/15 10:58:56;;;;;;;9.40;6.60;;;19.80;99.90;;;;;;5020916;28;20029;-68
2023/02/15 11:01:41;;;;;;;8.70;6.07;;;19.80;99.90;;;;;;5019547;28;20069;-66
2023/02/15 11:04:30;;;;;;;12.75;5.60;;;19.90;99.90;;;;;;5017201;28;20054;-69
2023/02/15 11:07:05;;;;;;;11.27;5.47;;;19.90;99.90;;;;;;5020713;28;20042;-64
2023/02/15 11:09:38;;;;;;;10.82;6.10;;;19.90;99.90;;;;;;5010442;28;20028;-67
2023/02/15 11:12:13;;;;;;;14.27;5.03;;;19.90;99.90;;;;;;5020337;28;20025;-65
2023/02/15 11:14:49;;;;;;;9.85;5.13;;;19.90;99.90;;;;;;5021688;28;20108;-66
2023/02/15 11:17:21;;;;;;;9.57;4.93;;;20.00;99.90;;;;;;5017173;28;20116;-67
2023/02/15 11:19:56;;;;;;;12.15;5.88;;;20.00;99.90;;;;;;5017317;28;20026;-67
2023/02/15 11:22:22;;;;;;;11.55;5.55;;;20.00;99.90;;;;;;5019055;28;20026;-68
2023/02/15 11:24:48;;;;;;;11.18;5.45;;;20.00;99.90;;;;;;5027714;28;20451;-68
2023/02/15 11:27:22;;;;;;;12.20;5.20;;;20.10;99.90;;;;;;5012198;28;20025;-69
2023/02/15 11:30:02;;;;;;;13.68;5.38;;;20.10;99.90;;;;;;5016829;28;20064;-65
2023/02/15 11:32:37;;;;;;;11.48;4.85;;;20.00;99.90;;;;;;5020659;28;20033;-69
2023/02/15 11:35:12;;;;;;;11.57;5.38;;;20.00;99.90;;;;;;5012605;28;20018;-68
2023/02/15 11:37:49;;;;;;;15.40;5.97;;;20.10;99.90;;;;;;5021626;28;20037;-65
2023/02/15 11:40:27;;;;;;;8.23;4.78;;;20.10;99.90;;;;;;5008069;28;20026;-65
2023/02/15 11:42:56;;;;;;;15.23;4.65;;;20.10;99.90;;;;;;4994760;28;20526;-65
2023/02/15 11:45:27;;;;;;;14.02;5.32;;;20.10;99.90;;;;;;5017000;28;20036;-66
2023/02/15 11:47:54;;;;;;;19.55;5.75;;;20.10;99.90;;;;;;5023124;28;20026;-64
2023/02/15 11:50:29;;;;;;;15.02;5.78;;;20.20;99.90;;;;;;5009787;28;20053;-64
2023/02/15 11:53:27;;;;;;;16.88;5.68;;;20.20;99.90;;;;;;5019966;28;20156;-65
2023/02/15 11:55:54;;;;;;;15.73;5.18;;;20.20;99.90;;;;;;5009807;28;20042;-64
2023/02/15 11:58:29;;;;;;;13.23;5.50;;;20.20;99.90;;;;;;5017237;28;20030;-63
2023/02/15 12:01:36;;;;;;;12.07;4.93;;;20.20;99.90;;;;;;5026767;28;20496;-64
2023/02/15 12:04:08;;;;;;;14.38;5.15;;;20.30;99.90;;;;;;5001663;28;20523;-65
2023/02/15 12:06:38;;;;;;;11.77;4.90;;;20.20;99.90;;;;;;5025461;28;20025;-64
2023/02/15 12:09:31;;;;;;;12.35;4.78;;;20.30;99.90;;;;;;5017969;28;20025;-63
2023/02/15 12:12:34;;;;;;;23.60;6.40;;;20.30;99.90;;;;;;5021178;28;20066;-65
2023/02/15 12:15:04;;;;;;;11.85;5.22;;;20.30;99.90;;;;;;5020658;28;20028;-64
2023/02/15 12:17:34;;;;;;;31.98;8.23;;;20.30;99.90;;;;;;5026802;28;20558;-62
2023/02/15 12:20:27;;;;;;;15.98;6.05;;;20.30;99.90;;;;;;5025964;28;20060;-66
2023/02/15 12:23:07;;;;;;;11.50;5.70;;;20.30;99.90;;;;;;5022982;28;20485;-64
2023/02/15 12:25:53;;;;;;;19.23;6.13;;;20.40;99.90;;;;;;5022689;28;20033;-66
2023/02/15 12:28:41;;;;;;;15.63;5.82;;;20.40;99.90;;;;;;5022141;28;20383;-66
2023/02/15 12:31:27;;;;;;;17.48;5.72;;;20.40;99.90;;;;;;5021913;28;20491;-65
2023/02/15 12:33:56;;;;;;;14.43;5.07;;;20.40;99.90;;;;;;5022665;28;20044;-68
2023/02/15 12:36:26;;;;;;;17.48;5.28;;;20.50;99.90;;;;;;5024497;28;20116;-69
2023/02/15 12:39:13;;;;;;;21.10;5.82;;;20.50;99.90;;;;;;5022255;28;20093;-68
2023/02/15 12:42:14;;;;;;;20.42;5.72;;;20.40;99.90;;;;;;5023348;28;20029;-68
2023/02/15 12:45:03;;;;;;;18.75;5.50;;;20.40;99.90;;;;;;5000958;28;20042;-69
2023/02/15 12:47:31;;;;;;;15.23;5.20;;;20.50;99.90;;;;;;5011883;28;20075;-65
2023/02/15 12:50:05;;;;;;;;;;;20.50;99.90;;;;;;5020712;28;20026;-64
2023/02/15 12:52:31;;;;;;;17.52;6.18;;;20.50;99.90;;;;;;5018519;28;19916;-62
2023/02/15 12:55:17;;;;;;;12.95;5.18;;;20.50;99.90;;;;;;5021117;28;20017;-63
2023/02/15 12:57:45;;;;;;;14.43;5.32;;;20.50;99.90;;;;;;4999143;28;20030;-61
2023/02/15 13:00:25;;;;;;;15.63;6.18;;;20.50;99.90;;;;;;5019434;28;20089;-64
2023/02/15 13:02:54;;;;;;;19.50;6.95;;;20.50;99.90;;;;;;5017189;28;20017;-63
2023/02/15 13:05:27;;;;;;;20.23;6.30;;;20.50;99.90;;;;;;5015345;28;20036;-63
2023/02/15 13:08:20;;;;;;;12.82;5.32;;;20.50;99.90;;;;;;5023007;28;20030;-61
2023/02/15 13:11:20;;;;;;;19.08;5.90;;;20.50;99.90;;;;;;5021896;28;20128;-62
2023/02/15 13:13:56;;;;;;;16.20;6.70;;;20.60;99.90;;;;;;5018760;28;20395;-62
2023/02/15 13:16:37;;;;;;;17.98;7.60;;;20.60;99.90;;;;;;5019138;28;20507;-63
2023/02/15 13:19:12;;;;;;;18.90;7.00;;;20.60;99.90;;;;;;5019535;28;20480;-63
2023/02/15 13:21:43;;;;;;;14.95;6.20;;;20.60;99.90;;;;;;5016119;28;20068;-65
2023/02/15 13:24:23;;;;;;;18.38;6.70;;;20.60;99.90;;;;;;5015524;28;20101;-64
2023/02/15 13:26:50;;;;;;;20.20;9.10;;;20.70;99.90;;;;;;5021427;28;20017;-66
2023/02/15 13:29:28;;;;;;;25.33;9.50;;;20.60;99.90;;;;;;5019241;28;20013;-64
2023/02/15 13:31:57;;;;;;;33.88;12.40;;;20.70;99.90;;;;;;5015922;28;20022;-63